createdAt,value
2018-11-21T00:00:21.890Z,2.85
2018-11-21T00:02:50.947Z,3.05
2018-11-21T00:05:20.292Z,3.18
2018-11-21T00:07:49.793Z,3.20
2018-11-21T00:10:18.854Z,3.16
2018-11-21T00:12:54.331Z,3.14
2018-11-21T00:15:23.648Z,3.15
2018-11-21T00:17:53.428Z,3.11
2018-11-21T00:20:22.278Z,3.10
2018-11-21T00:22:50.932Z,3.07
2018-11-21T00:25:19.679Z,3.20
2018-11-21T00:27:48.179Z,3.25
2018-11-21T00:30:18.462Z,3.30
2018-11-21T00:32:46.971Z,3.25
2018-11-21T00:35:16.178Z,3.27
2018-11-21T00:37:44.437Z,3.26
2018-11-21T00:40:14.323Z,3.31
2018-11-21T00:42:46.748Z,3.28
2018-11-21T00:45:11.680Z,3.23
2018-11-21T00:47:40.429Z,3.42
2018-11-21T00:50:08.937Z,3.40
2018-11-21T00:52:37.591Z,3.42
2018-11-21T00:55:06.845Z,3.30
2018-11-21T00:57:35.345Z,3.21
2018-11-21T01:00:03.976Z,3.29
2018-11-21T01:02:32.476Z,3.21
2018-11-21T01:05:00.947Z,3.24
2018-11-21T01:07:29.551Z,3.31
2018-11-21T01:09:58.028Z,3.25
2018-11-21T01:12:26.592Z,3.27
2018-11-21T01:14:55.071Z,3.23
2018-11-21T01:17:23.576Z,3.25
2018-11-21T01:19:52.048Z,3.20
2018-11-21T01:22:20.516Z,3.18
2018-11-21T01:24:49.393Z,3.22
2018-11-21T01:27:17.863Z,3.16
2018-11-21T01:29:46.371Z,3.11
2018-11-21T01:32:14.873Z,3.09
2018-11-21T01:34:43.389Z,3.05
2018-11-21T01:37:11.861Z,3.16
2018-11-21T01:39:40.656Z,3.02
2018-11-21T01:42:09.045Z,2.97
2018-11-21T01:44:37.566Z,2.98
2018-11-21T01:47:06.187Z,2.98
2018-11-21T01:49:34.663Z,3.11
2018-11-21T01:52:03.168Z,3.03
2018-11-21T01:54:31.639Z,2.80
2018-11-21T01:57:00.156Z,2.96
2018-11-21T01:59:28.633Z,2.84
2018-11-21T02:01:57.158Z,2.98
2018-11-21T02:04:25.624Z,3.04
2018-11-21T02:06:54.134Z,3.02
2018-11-21T02:09:22.605Z,2.97
2018-11-21T02:11:51.112Z,2.99
2018-11-21T02:14:19.676Z,2.98
2018-11-21T02:16:48.201Z,2.98
2018-11-21T02:19:16.684Z,2.92
2018-11-21T02:21:45.152Z,2.99
2018-11-21T02:24:13.661Z,2.88
2018-11-21T02:26:42.127Z,2.88
2018-11-21T02:29:10.631Z,2.94
2018-11-21T02:31:39.092Z,2.98
2018-11-21T02:34:07.598Z,3.01
2018-11-21T02:36:36.054Z,2.86
2018-11-21T02:39:08.106Z,2.94
2018-11-21T02:41:36.995Z,3.00
2018-11-21T02:44:05.861Z,2.93
2018-11-21T02:46:34.581Z,2.94
2018-11-21T02:49:03.417Z,3.02
2018-11-21T02:51:31.879Z,2.96
2018-11-21T02:54:00.352Z,2.87
2018-11-21T02:57:06.330Z,2.86
2018-11-21T02:59:34.790Z,2.89
2018-11-21T03:02:03.294Z,2.76
2018-11-21T03:04:31.775Z,2.78
2018-11-21T03:07:00.267Z,2.80
2018-11-21T03:09:28.734Z,2.76
2018-11-21T03:11:57.252Z,2.73
2018-11-21T03:14:25.722Z,2.70
2018-11-21T03:16:54.221Z,2.72
2018-11-21T03:19:22.715Z,2.91
2018-11-21T03:21:51.213Z,2.85
2018-11-21T03:24:19.677Z,2.87
2018-11-21T03:26:48.188Z,2.95
2018-11-21T03:29:16.655Z,2.95
2018-11-21T03:31:45.156Z,2.90
2018-11-21T03:34:13.624Z,2.88
2018-11-21T03:36:48.170Z,2.99
2018-11-21T03:39:17.326Z,2.98
2018-11-21T03:41:46.468Z,2.99
2018-11-21T03:44:14.956Z,3.13
2018-11-21T03:46:44.459Z,3.16
2018-11-21T03:49:12.922Z,3.00
2018-11-21T03:51:41.680Z,3.04
2018-11-21T03:54:10.421Z,3.05
2018-11-21T03:56:39.565Z,3.01
2018-11-21T03:59:08.691Z,3.00
2018-11-21T04:01:37.448Z,2.98
2018-11-21T04:04:06.777Z,3.04
2018-11-21T04:06:35.238Z,3.21
2018-11-21T04:09:05.073Z,3.06
2018-11-21T04:11:33.539Z,3.06
2018-11-21T04:14:02.069Z,3.04
2018-11-21T04:16:30.528Z,3.09
2018-11-21T04:18:59.014Z,3.10
2018-11-21T04:21:27.590Z,3.10
2018-11-21T04:23:56.100Z,3.02
2018-11-21T04:26:24.600Z,3.08
2018-11-21T04:28:53.104Z,3.04
2018-11-21T04:31:21.560Z,3.02
2018-11-21T04:33:50.039Z,3.07
2018-11-21T04:36:18.534Z,3.03
2018-11-21T04:39:00.679Z,3.07
2018-11-21T04:41:29.164Z,3.05
2018-11-21T04:43:57.631Z,3.05
2018-11-21T04:46:26.146Z,3.06
2018-11-21T04:48:54.607Z,3.09
2018-11-21T04:51:23.074Z,2.99
2018-11-21T04:53:51.572Z,3.01
2018-11-21T04:56:20.035Z,2.94
2018-11-21T04:58:48.542Z,2.96
2018-11-21T05:01:17.041Z,2.98
2018-11-21T05:03:45.534Z,2.95
2018-11-21T05:06:13.996Z,2.94
2018-11-21T05:08:42.493Z,2.85
2018-11-21T05:11:11.205Z,2.93
2018-11-21T05:13:39.717Z,2.94
2018-11-21T05:16:08.205Z,2.91
2018-11-21T05:18:36.709Z,2.93
2018-11-21T05:21:05.287Z,2.81
2018-11-21T05:23:33.882Z,2.86
2018-11-21T05:26:02.343Z,2.87
2018-11-21T05:28:30.836Z,3.00
2018-11-21T05:30:59.301Z,2.89
2018-11-21T05:33:28.079Z,2.94
2018-11-21T05:35:56.538Z,2.90
2018-11-21T05:38:25.059Z,2.87
2018-11-21T05:40:53.517Z,2.97
2018-11-21T05:43:22.022Z,2.98
2018-11-21T05:45:50.480Z,2.88
2018-11-21T05:48:18.986Z,2.84
2018-11-21T05:50:47.454Z,2.84
2018-11-21T05:53:15.956Z,2.80
2018-11-21T05:55:44.417Z,2.83
2018-11-21T05:58:12.922Z,2.80
2018-11-21T06:00:49.135Z,2.89
2018-11-21T06:03:13.692Z,2.89
2018-11-21T06:05:42.155Z,2.89
2018-11-21T06:08:10.684Z,2.85
2018-11-21T06:10:39.150Z,2.89
2018-11-21T06:13:07.686Z,2.81
2018-11-21T06:15:36.150Z,2.81
2018-11-21T06:18:05.003Z,2.77
2018-11-21T06:20:33.500Z,2.87
2018-11-21T06:23:01.966Z,2.81
2018-11-21T06:25:30.662Z,2.81
2018-11-21T06:27:59.138Z,2.85
2018-11-21T06:30:27.642Z,2.94
2018-11-21T06:32:56.116Z,2.89
2018-11-21T06:35:24.759Z,2.77
2018-11-21T06:37:53.229Z,2.85
2018-11-21T06:40:21.721Z,2.85
2018-11-21T06:42:54.315Z,2.86
2018-11-21T06:45:24.162Z,2.98
2018-11-21T06:47:52.630Z,2.92
2018-11-21T06:50:21.330Z,2.89
2018-11-21T06:52:50.078Z,2.88
2018-11-21T06:55:18.589Z,2.90
2018-11-21T06:57:47.095Z,2.88
2018-11-21T07:00:15.606Z,2.82
2018-11-21T07:02:44.105Z,2.77
2018-11-21T07:05:12.751Z,2.80
2018-11-21T07:07:41.211Z,2.80
2018-11-21T07:10:12.149Z,2.91
2018-11-21T07:12:40.671Z,2.81
2018-11-21T07:15:09.488Z,2.77
2018-11-21T07:17:38.308Z,2.74
2018-11-21T07:20:09.017Z,2.86
2018-11-21T07:22:39.811Z,2.78
2018-11-21T07:25:35.148Z,2.85
2018-11-21T07:28:03.675Z,2.83
2018-11-21T07:30:32.161Z,2.79
2018-11-21T07:33:00.625Z,2.70
2018-11-21T07:35:29.126Z,2.71
2018-11-21T07:37:57.600Z,2.74
2018-11-21T07:40:26.113Z,2.74
2018-11-21T07:42:54.583Z,2.67
2018-11-21T07:45:23.755Z,2.70
2018-11-21T07:47:51.572Z,2.69
2018-11-21T07:50:21.227Z,2.77
2018-11-21T07:52:49.713Z,2.84
2018-11-21T07:55:18.328Z,2.77
2018-11-21T07:57:48.756Z,2.81
2018-11-21T08:00:54.147Z,2.72
2018-11-21T08:03:23.667Z,2.73
2018-11-21T08:05:54.845Z,2.75
2018-11-21T08:08:48.351Z,2.72
2018-11-21T08:11:34.526Z,2.70
2018-11-21T08:14:20.640Z,2.69
2018-11-21T08:17:13.990Z,2.82
2018-11-21T08:20:16.898Z,2.84
2018-11-21T08:23:08.136Z,2.82
2018-11-21T08:25:58.515Z,2.98
2018-11-21T08:28:30.911Z,3.06
2018-11-21T08:30:59.412Z,3.02
2018-11-21T08:33:33.852Z,3.12
2018-11-21T08:35:57.125Z,3.09
2018-11-21T08:38:25.594Z,3.08
2018-11-21T08:40:54.220Z,3.18
2018-11-21T08:43:22.702Z,3.19
2018-11-21T08:45:51.273Z,3.25
2018-11-21T08:48:20.565Z,3.32
2018-11-21T08:50:49.069Z,3.36
2018-11-21T08:53:17.576Z,3.44
2018-11-21T08:55:46.051Z,3.37
2018-11-21T08:58:15.000Z,3.26
2018-11-21T09:00:43.521Z,3.40
2018-11-21T09:03:14.254Z,3.48
2018-11-21T09:05:42.786Z,3.48
2018-11-21T09:08:11.291Z,3.58
2018-11-21T09:10:39.755Z,3.57
2018-11-21T09:13:08.272Z,3.61
2018-11-21T09:15:37.137Z,3.64
2018-11-21T09:18:05.894Z,3.63
2018-11-21T09:20:34.388Z,3.69
2018-11-21T09:23:02.913Z,3.59
2018-11-21T09:25:31.982Z,3.68
2018-11-21T09:28:00.538Z,3.65
2018-11-21T09:30:29.013Z,3.82
2018-11-21T09:32:58.163Z,3.72
2018-11-21T09:35:26.679Z,3.83
2018-11-21T09:37:55.811Z,3.87
2018-11-21T09:40:24.644Z,3.90
2018-11-21T09:42:55.441Z,3.81
2018-11-21T09:45:25.206Z,3.73
2018-11-21T09:47:53.687Z,3.83
2018-11-21T09:50:29.432Z,3.92
2018-11-21T09:53:00.282Z,4.00
2018-11-21T09:55:29.164Z,4.05
2018-11-21T09:57:57.893Z,4.17
2018-11-21T10:01:03.424Z,4.22
2018-11-21T10:03:33.354Z,4.11
2018-11-21T10:06:19.823Z,4.03
2018-11-21T10:08:50.216Z,4.03
2018-11-21T10:11:18.960Z,3.98
2018-11-21T10:13:47.516Z,3.93
2018-11-21T10:16:16.503Z,3.89
2018-11-21T10:18:46.966Z,3.87
2018-11-21T10:21:17.198Z,3.92
2018-11-21T10:23:48.133Z,3.84
2018-11-21T10:26:17.709Z,3.94
2018-11-21T10:28:48.010Z,4.01
2018-11-21T10:31:16.832Z,4.00
2018-11-21T10:33:49.161Z,3.96
2018-11-21T10:36:17.958Z,4.07
2018-11-21T10:38:46.420Z,4.01
2018-11-21T10:41:14.922Z,4.05
2018-11-21T10:43:43.378Z,4.25
2018-11-21T10:46:11.884Z,4.20
2018-11-21T10:48:40.369Z,4.40
2018-11-21T10:51:09.876Z,4.31
2018-11-21T10:53:39.280Z,4.30
2018-11-21T10:56:08.806Z,4.19
2018-11-21T10:58:38.206Z,4.21
2018-11-21T11:01:24.317Z,4.16
2018-11-21T11:04:23.900Z,4.14
2018-11-21T11:07:10.147Z,4.19
2018-11-21T11:09:51.769Z,4.34
2018-11-21T11:12:40.521Z,4.42
2018-11-21T11:15:37.497Z,4.43
2018-11-21T11:18:32.337Z,4.66
2018-11-21T11:21:19.078Z,4.75
2018-11-21T11:27:41.731Z,4.62
2018-11-21T11:30:39.229Z,4.69
2018-11-21T11:33:26.374Z,4.74
2018-11-21T11:36:13.312Z,4.72
2018-11-21T11:38:56.395Z,4.65
2018-11-21T11:41:42.621Z,4.71
2018-11-21T11:44:29.958Z,4.86
2018-11-21T11:47:17.829Z,4.92
2018-11-21T11:49:57.730Z,4.85
2018-11-21T11:52:45.320Z,4.84
2018-11-21T11:55:32.503Z,4.88
2018-11-21T11:58:38.100Z,4.76
2018-11-21T12:01:45.059Z,4.77
2018-11-21T12:04:36.448Z,4.91
2018-11-21T12:07:25.439Z,4.86
2018-11-21T12:10:12.591Z,4.89
2018-11-21T12:13:06.939Z,4.93
2018-11-21T12:16:10.818Z,4.95
2018-11-21T12:19:04.348Z,4.87
2018-11-21T12:21:51.759Z,4.79
